Flight Track Log - Related Links

Times and Time Zones

All times are in EDT time to prevent confusion due to time zone crossing. See the SKW6534 flight status page for this flight to view local times or setup timezone preferences in your user account.

Time Position Orientation Groundspeed Altitude Reporting Facility
EDT Latitude Longitude Course Direction KTS MPH feet Rate Location/Type
Fri 01:27:42 PM 39.8500 -104.7667 346° North 186 214 7,100  Level Denver TRACON
Fri 01:28:36 PM 39.8833 -104.8000 323° Northwest 246 283 8,900 1,871 Climbing Denver TRACON
Fri 01:29:15 PM 39.9356 -104.8058 355° North 258 297 10,000 2,198 Climbing Denver Center
Fri 01:30:00 PM 40.1590 -104.7694 347° North  Level FlightAware Approximate
Fri 01:30:17 PM 40.0097 -104.7669 22° Northeast 287 330 12,600  Level Denver Center
Fri 01:31:00 PM 40.2628 -104.8005 347° North  Level FlightAware Approximate
Fri 01:31:19 PM 40.0864 -104.7044 32° Northeast 301 346 14,600  Level Denver Center
Fri 01:32:00 PM 40.3664 -104.8332 346° North  Level FlightAware Approximate
Fri 01:32:21 PM 40.1697 -104.6678 19° North 312 359 16,400  Level Denver Center
Fri 01:33:23 PM 40.2558 -104.6411 13° North 319 367 17,800 1,403 Climbing Denver Center
Fri 01:34:25 PM 40.3500 -104.6597 351° North 327 376 19,300 1,452 Climbing Denver Center
Fri 01:35:27 PM 40.4336 -104.6956 342° North 320 368 20,800 1,355 Climbing Denver Center
Fri 01:36:29 PM 40.5261 -104.7372 341° North 325 374 22,100 1,113 Climbing Denver Center
Fri 01:37:31 PM 40.6142 -104.7761 341° North 331 381 23,100 919 Climbing Denver Center
Fri 01:38:33 PM 40.7122 -104.8181 342° North 344 396 24,000 871 Climbing Denver Center
Fri 01:39:35 PM 40.7953 -104.8544 342° North 338 389 24,900 871 Climbing Denver Center
Fri 01:40:37 PM 40.8872 -104.8983 340° North 348 400 25,800 919 Climbing Denver Center
Fri 01:41:39 PM 40.9525 -105.0247 304° West 353 406 26,800 919 Climbing Denver Center
Fri 01:42:41 PM 40.9994 -105.1375 299° West 349 402 27,700 823 Climbing Denver Center
Fri 01:43:43 PM 41.0422 -105.2428 298° West 352 405 28,500 774 Climbing Denver Center
Fri 01:44:45 PM 41.0944 -105.3711 298° West 354 407 29,300 683 Climbing Denver Center
Fri 01:45:46 PM 41.1328 -105.4636 299° West 357 411 29,900 683 Climbing Denver Center
Fri 01:46:48 PM 41.1925 -105.6131 298° West 359 413 30,700 677 Climbing Denver Center
Fri 01:47:50 PM 41.2372 -105.7233 298° West 356 410 31,300 581 Climbing Denver Center
Fri 01:48:52 PM 41.2886 -105.8533 298° West 356 410 31,900 339 Climbing Denver Center
Fri 01:49:54 PM 41.3325 -105.9622 298° West 352 405 32,000 48 Climbing Denver Center
Fri 01:50:56 PM 41.3783 -106.0767 298° West 362 417 32,000  Level Denver Center
Fri 01:51:58 PM 41.4319 -106.2119 298° West 369 425 32,000  Level Denver Center
Fri 01:53:00 PM 41.4781 -106.3303 298° West 375 432 32,000  Level Denver Center
Fri 01:54:14 PM 41.5325 -106.4683 298° West 376 433 32,000  Level Denver Center
Fri 01:55:55 PM 41.6208 -106.6986 297° West 380 437 32,000  Level Salt Lake Center
Fri 01:56:18 PM 41.6383 -106.7381 301° West 383 441 32,000  Level Denver Center
Fri 01:57:20 PM 41.6911 -106.8792 297° West 380 437 32,000  Level Denver Center
Fri 01:58:22 PM 41.7375 -106.9986 298° West 380 437 32,000  Level Denver Center
Fri 01:59:24 PM 41.7914 -107.1394 297° West 381 438 32,000  Level Denver Center
Fri 02:00:38 PM 41.8381 -107.2614 297° West 382 440 32,000  Level Denver Center
Fri 02:01:40 PM 41.8997 -107.4236 297° West 383 441 32,000  Level Denver Center
Fri 02:02:42 PM 41.9528 -107.5647 297° West 381 438 32,000  Level Denver Center
Fri 02:03:44 PM 41.9983 -107.6861 297° West 382 440 32,000  Level Denver Center
Fri 02:04:11 PM 42.0192 -107.7453 295° West 378 435 32,000  Level Salt Lake Center
Fri 02:05:13 PM 42.0653 -107.8675 297° West 383 441 32,000  Level Salt Lake Center
Fri 02:06:15 PM 42.1181 -108.0103 297° West 384 442 32,000  Level Salt Lake Center
Fri 02:07:17 PM 42.1639 -108.1333 297° West 386 444 32,000  Level Salt Lake Center
Fri 02:08:19 PM 42.2158 -108.2764 296° West 383 441 32,000  Level Salt Lake Center
Fri 02:09:21 PM 42.2606 -108.4003 296° West 384 442 32,000  Level Salt Lake Center
Fri 02:10:23 PM 42.3144 -108.5458 297° West 388 447 32,000  Level Salt Lake Center
Fri 02:11:25 PM 42.3578 -108.6681 296° West 382 440 32,000  Level Salt Lake Center
Fri 02:12:27 PM 42.4094 -108.8128 296° West 383 441 32,000  Level Salt Lake Center
Fri 02:13:29 PM 42.4542 -108.9361 296° West 383 441 32,000  Level Salt Lake Center
Fri 02:14:31 PM 42.5056 -109.0817 296° West 384 442 32,000  Level Salt Lake Center
Fri 02:15:33 PM 42.5497 -109.2061 296° West 385 443 32,000  Level Salt Lake Center
Fri 02:16:35 PM 42.6006 -109.3514 295° West 384 442 32,000  Level Salt Lake Center
Fri 02:17:37 PM 42.6447 -109.4769 296° West 385 443 32,000  Level Salt Lake Center
Fri 02:18:39 PM 42.6972 -109.6264 296° West 391 450 32,000  Level Salt Lake Center
Fri 02:19:41 PM 42.7422 -109.7542 296° West 392 451 32,000  Level Salt Lake Center
Fri 02:20:43 PM 42.7919 -109.9006 295° West 393 452 32,000  Level Salt Lake Center
Fri 02:21:45 PM 42.8367 -110.0303 295° West 394 453 32,000  Level Salt Lake Center
Fri 02:22:47 PM 42.8886 -110.1814 295° West 395 455 32,000  Level Salt Lake Center
Fri 02:23:49 PM 42.9350 -110.3128 296° West 392 451 32,000  Level Salt Lake Center
Fri 02:24:51 PM 42.9847 -110.4619 295° West 394 453 32,000 -145 Level Salt Lake Center
Fri 02:25:53 PM 43.0272 -110.5856 295° West 380 437 31,700 -1,403 Descending Salt Lake Center
Fri 02:26:55 PM 43.0714 -110.7150 295° West 390 449 29,100 -2,661 Descending Salt Lake Center
Fri 02:27:57 PM 43.1769 -110.8025 329° Northwest 396 456 26,200 -2,634 Descending Salt Lake Center
Fri 02:28:58 PM 43.2486 -110.9006 315° West 382 440 23,700 -2,732 Descending Salt Lake Center
Fri 02:30:00 PM 43.3133 -111.0281 305° West 369 425 20,600 -2,758 Descending Salt Lake Center
Fri 02:31:02 PM 43.3536 -111.1375 297° West 355 409 18,000 -2,565 Descending Salt Lake Center
Fri 02:32:04 PM 43.3978 -111.2528 298° West 343 395 15,300 -2,758 Descending Salt Lake Center
Fri 02:33:06 PM 43.4514 -111.3736 301° West 337 388 12,300 -1,597 Descending Salt Lake Center
Fri 02:34:08 PM 43.5042 -111.4758 305° West 317 365 12,000 -146 Descending Salt Lake Center
Fri 02:35:09 PM 43.5439 -111.5478 307° West 279 321 12,000 -439 Level Salt Lake Center
Fri 02:36:11 PM 43.5814 -111.6169 307° West 255 293 11,100 -1,403 Descending Salt Lake Center
Fri 02:37:13 PM 43.6261 -111.6986 307° West 243 280 9,100 -1,016 Descending Salt Lake Center
Fri 02:38:15 PM 43.6639 -111.7717 306° West 243 280 9,000 -97 Descending Salt Lake Center
Fri 02:39:17 PM 43.6894 -111.8489 295° West 235 270 8,900 -484 Descending Salt Lake Center
Fri 02:40:19 PM 43.6642 -111.9131 241° Southwest 210 242 8,000 -823 Descending Salt Lake Center
Fri 02:41:21 PM 43.6194 -111.9614 218° Southwest 190 219 7,200 -780 Descending Salt Lake Center
Fri 02:42:22 PM 43.5833 -111.9983 217° Southwest 180 207 6,400 -780 Descending Salt Lake Center
Fri 02:43:24 PM 43.5489 -112.0358 218° Southwest 157 181 5,600 -774 Descending Salt Lake Center

Login

Don't have an account? Register now (free) for customized features, flight alerts, and more!